Disclaimer

Please do not use the information listed here in-flight or in-navigation, as they are not provided to us by the airports but are provided by volunteers, so they might be outdated.

Search


Regions


Airport information page

Radio informations:
WITTMUND TWR - 118.725 MHz
WITTMUND RADAR - 123.3 MHz
BREMEN CON - 124.075 MHz

Airport informations:
Latitude: 53° 32' 52.20" N
Longitude: 007° 40' 02.40" E
Elevation: 26 feet - 8 meters
Operating hours: Remarks
Operating agency: Military
Timezone: UTC+1(+2DT) - Last Sunday in March to last Sunday in October
Fuel: JP-8, SemiKeroscene MIL Spec T-83133, without icing inhibitor

Storage tanks availble and fuel type unknown or the tanks were used at one time for avaiation products but now store other products.

Runway information:
08/26 - 8005 x 98 feet< - >2440 x 30 meters

Recent METARs:
ETNT 210320Z 11013KT 9999 BKN020 03/M01 Q1017 WHT
ETNT 210320Z 11013KT 9999 BKN020 03/M01 Q1017 WHT
ETNT 210420Z 11014KT 9999 BKN020 03/M01 Q1017 WHT

Airport on the map: